KLM521 LOWW-EHEH
Flight info
| Callsign | KLM521 |
|---|---|
| Flight time | 1h 23m |
| Altitude | 38000 |
| Route | BUWUT DCT DITIS DCT IPDUL DCT RAPET DCT RUNEN DCT MAPOX DCT BIGGE DCT DOMEG DCT ROTEK |
| Aircraft | A333/H-SDE3GHIJ2J3J5M1RVWXY/LB2D1 |
Departure
| Time | 2026-05-06 09:34 |
|---|---|
| Airport | Vienna International Airport (LOWW) |
Arrival
| Time | 2026-05-06 10:58 |
|---|---|
| Airport | Eindhoven Airport (EHEH) |
| Time | Latitude | Longitude | Altitude | Speed | Heading |
|---|---|---|---|---|---|
| 2026-05-06 09:11 | 48.11974 | 16.55403 | 624 ft | 0 kts | 295° |
| 2026-05-06 09:25 | 48.11973 | 16.55405 | 629 ft | 1 kts | 295° |
| 2026-05-06 09:25 | 48.11967 | 16.55425 | 618 ft | 1 kts | 296° |
| 2026-05-06 09:25 | 48.11961 | 16.55446 | 629 ft | 3 kts | 261° |
| 2026-05-06 09:25 | 48.11969 | 16.55469 | 629 ft | 3 kts | 221° |
| 2026-05-06 09:26 | 48.11983 | 16.55485 | 629 ft | 2 kts | 207° |
| 2026-05-06 09:26 | 48.11986 | 16.55488 | 629 ft | 1 kts | 206° |
| 2026-05-06 09:28 | 48.11984 | 16.55486 | 629 ft | 1 kts | 206° |
| 2026-05-06 09:28 | 48.11956 | 16.55466 | 629 ft | 8 kts | 206° |
| 2026-05-06 09:28 | 48.11907 | 16.55452 | 629 ft | 9 kts | 160° |
| 2026-05-06 09:28 | 48.11860 | 16.55559 | 627 ft | 16 kts | 117° |
| 2026-05-06 09:29 | 48.11798 | 16.55750 | 627 ft | 22 kts | 116° |
| 2026-05-06 09:29 | 48.11733 | 16.55948 | 628 ft | 20 kts | 116° |
| 2026-05-06 09:29 | 48.11673 | 16.56135 | 632 ft | 20 kts | 116° |
| 2026-05-06 09:29 | 48.11615 | 16.56316 | 630 ft | 19 kts | 116° |
| 2026-05-06 09:30 | 48.11543 | 16.56538 | 630 ft | 29 kts | 116° |
| 2026-05-06 09:30 | 48.11460 | 16.56800 | 627 ft | 25 kts | 103° |
| 2026-05-06 09:30 | 48.11520 | 16.56925 | 625 ft | 13 kts | 22° |
| 2026-05-06 09:30 | 48.11580 | 16.57003 | 631 ft | 8 kts | 52° |
| 2026-05-06 09:31 | 48.11661 | 16.57069 | 627 ft | 19 kts | 26° |
| 2026-05-06 09:31 | 48.11761 | 16.57134 | 619 ft | 18 kts | 22° |
| 2026-05-06 09:31 | 48.11857 | 16.57212 | 620 ft | 5 kts | 56° |
| 2026-05-06 09:31 | 48.11851 | 16.57250 | 623 ft | 9 kts | 105° |
| 2026-05-06 09:32 | 48.11919 | 16.57302 | 621 ft | 14 kts | 347° |
| 2026-05-06 09:32 | 48.11987 | 16.57319 | 614 ft | 7 kts | 51° |
| 2026-05-06 09:32 | 48.12010 | 16.57443 | 611 ft | 18 kts | 80° |
| 2026-05-06 09:32 | 48.11995 | 16.57606 | 603 ft | 17 kts | 103° |
| 2026-05-06 09:33 | 48.11960 | 16.57774 | 603 ft | 16 kts | 112° |
| 2026-05-06 09:33 | 48.11897 | 16.57849 | 613 ft | 0 kts | 163° |
| 2026-05-06 09:33 | 48.11778 | 16.57903 | 615 ft | 47 kts | 163° |
| 2026-05-06 09:34 | 48.11280 | 16.58113 | 619 ft | 100 kts | 164° |
| 2026-05-06 09:34 | 48.10463 | 16.58462 | 677 ft | 137 kts | 163° |
| 2026-05-06 09:34 | 48.09520 | 16.58864 | 1057 ft | 149 kts | 162° |
| 2026-05-06 09:34 | 48.08474 | 16.59295 | 1502 ft | 161 kts | 162° |
| 2026-05-06 09:35 | 48.07352 | 16.59754 | 1994 ft | 174 kts | 163° |
| 2026-05-06 09:35 | 48.06168 | 16.60428 | 2450 ft | 189 kts | 148° |
| 2026-05-06 09:35 | 48.05264 | 16.61905 | 2933 ft | 203 kts | 116° |
| 2026-05-06 09:35 | 48.05135 | 16.64080 | 3444 ft | 226 kts | 78° |
| 2026-05-06 09:36 | 48.05977 | 16.66138 | 3941 ft | 248 kts | 51° |
| 2026-05-06 09:36 | 48.07259 | 16.67990 | 4449 ft | 266 kts | 45° |
| 2026-05-06 09:36 | 48.08670 | 16.69888 | 4988 ft | 276 kts | 44° |
| 2026-05-06 09:36 | 48.10101 | 16.71843 | 5538 ft | 280 kts | 45° |
| 2026-05-06 09:37 | 48.11538 | 16.73845 | 6077 ft | 282 kts | 46° |
| 2026-05-06 09:37 | 48.12972 | 16.75871 | 6637 ft | 285 kts | 46° |
| 2026-05-06 09:37 | 48.14484 | 16.77813 | 7160 ft | 290 kts | 33° |
| 2026-05-06 09:37 | 48.16383 | 16.78809 | 7697 ft | 293 kts | 2° |
| 2026-05-06 09:38 | 48.18417 | 16.78585 | 8260 ft | 295 kts | 348° |
| 2026-05-06 09:38 | 48.20450 | 16.78041 | 8826 ft | 298 kts | 346° |
| 2026-05-06 09:38 | 48.22471 | 16.77463 | 9340 ft | 301 kts | 346° |
| 2026-05-06 09:38 | 48.24536 | 16.76885 | 9813 ft | 303 kts | 346° |
| 2026-05-06 09:39 | 48.26636 | 16.76310 | 10238 ft | 314 kts | 346° |
| 2026-05-06 09:39 | 48.28842 | 16.75712 | 10665 ft | 331 kts | 346° |
| 2026-05-06 09:39 | 48.31169 | 16.75088 | 11106 ft | 346 kts | 347° |
| 2026-05-06 09:39 | 48.33577 | 16.74372 | 11541 ft | 356 kts | 341° |
| 2026-05-06 09:40 | 48.35879 | 16.73027 | 11977 ft | 355 kts | 330° |
| 2026-05-06 09:40 | 48.38085 | 16.71358 | 12445 ft | 355 kts | 328° |
| 2026-05-06 09:40 | 48.42397 | 16.67714 | 13379 ft | 353 kts | 318° |
| 2026-05-06 09:41 | 48.44145 | 16.65178 | 13814 ft | 346 kts | 303° |
| 2026-05-06 09:41 | 48.45349 | 16.62082 | 14265 ft | 341 kts | 290° |
| 2026-05-06 09:41 | 48.46226 | 16.58766 | 14747 ft | 342 kts | 286° |
| 2026-05-06 09:41 | 48.47038 | 16.55430 | 15220 ft | 344 kts | 286° |
| 2026-05-06 09:42 | 48.47861 | 16.52033 | 15717 ft | 347 kts | 287° |
| 2026-05-06 09:42 | 48.48697 | 16.48601 | 16220 ft | 349 kts | 287° |
| 2026-05-06 09:42 | 48.49538 | 16.45161 | 16724 ft | 352 kts | 287° |
| 2026-05-06 09:42 | 48.50392 | 16.41678 | 17242 ft | 355 kts | 287° |
| 2026-05-06 09:43 | 48.51251 | 16.38173 | 17785 ft | 358 kts | 287° |
| 2026-05-06 09:43 | 48.52117 | 16.34639 | 18277 ft | 361 kts | 287° |
| 2026-05-06 09:43 | 48.52989 | 16.31077 | 18757 ft | 364 kts | 287° |
| 2026-05-06 09:43 | 48.53871 | 16.27469 | 19234 ft | 367 kts | 287° |
| 2026-05-06 09:44 | 48.54758 | 16.23837 | 19717 ft | 369 kts | 287° |
| 2026-05-06 09:44 | 48.55649 | 16.20185 | 20230 ft | 371 kts | 286° |
| 2026-05-06 09:44 | 48.56540 | 16.16521 | 20726 ft | 373 kts | 286° |
| 2026-05-06 09:44 | 48.57466 | 16.12838 | 21247 ft | 376 kts | 288° |
| 2026-05-06 09:45 | 48.58491 | 16.09176 | 21764 ft | 379 kts | 288° |
| 2026-05-06 09:45 | 48.59531 | 16.05556 | 22288 ft | 380 kts | 288° |
| 2026-05-06 09:45 | 48.60587 | 16.01891 | 22824 ft | 381 kts | 288° |
| 2026-05-06 09:45 | 48.61657 | 15.98165 | 23378 ft | 382 kts | 288° |
| 2026-05-06 09:46 | 48.62697 | 15.94535 | 23836 ft | 382 kts | 288° |
| 2026-05-06 09:46 | 48.63752 | 15.90841 | 24302 ft | 382 kts | 288° |
| 2026-05-06 09:46 | 48.64805 | 15.87147 | 24796 ft | 382 kts | 288° |
| 2026-05-06 09:46 | 48.65853 | 15.83465 | 25276 ft | 381 kts | 288° |
| 2026-05-06 09:47 | 48.66900 | 15.79780 | 25795 ft | 380 kts | 287° |
| 2026-05-06 09:47 | 48.67942 | 15.76107 | 26293 ft | 379 kts | 287° |
| 2026-05-06 09:47 | 48.68978 | 15.72450 | 26808 ft | 377 kts | 287° |
| 2026-05-06 09:47 | 48.70009 | 15.68805 | 27334 ft | 375 kts | 287° |
| 2026-05-06 09:48 | 48.71030 | 15.65189 | 27866 ft | 373 kts | 287° |
| 2026-05-06 09:48 | 48.72045 | 15.61593 | 28410 ft | 370 kts | 287° |
| 2026-05-06 09:48 | 48.73051 | 15.58017 | 28963 ft | 367 kts | 287° |
| 2026-05-06 09:48 | 48.74044 | 15.54485 | 29527 ft | 363 kts | 287° |
| 2026-05-06 09:49 | 48.75026 | 15.50987 | 30062 ft | 359 kts | 287° |
| 2026-05-06 09:49 | 48.75999 | 15.47515 | 30564 ft | 355 kts | 287° |
| 2026-05-06 09:49 | 48.76956 | 15.44096 | 31092 ft | 350 kts | 286° |
| 2026-05-06 09:49 | 48.77900 | 15.40722 | 31613 ft | 345 kts | 285° |
| 2026-05-06 09:50 | 48.78829 | 15.37395 | 32130 ft | 339 kts | 285° |
| 2026-05-06 09:50 | 48.79746 | 15.34138 | 32660 ft | 333 kts | 287° |
| 2026-05-06 09:50 | 48.80780 | 15.31046 | 33192 ft | 331 kts | 292° |
| 2026-05-06 09:50 | 48.82014 | 15.28134 | 33731 ft | 326 kts | 295° |
| 2026-05-06 09:51 | 48.83305 | 15.25319 | 34224 ft | 319 kts | 296° |
| 2026-05-06 09:51 | 48.84585 | 15.22626 | 34696 ft | 309 kts | 297° |
| 2026-05-06 09:51 | 48.85833 | 15.20040 | 35181 ft | 298 kts | 297° |
| 2026-05-06 09:51 | 48.87031 | 15.17560 | 35686 ft | 284 kts | 296° |
| 2026-05-06 09:52 | 48.88193 | 15.15164 | 35863 ft | 283 kts | 297° |
| 2026-05-06 09:52 | 48.89406 | 15.12714 | 35625 ft | 297 kts | 298° |
| 2026-05-06 09:52 | 48.90707 | 15.10241 | 35441 ft | 309 kts | 299° |
| 2026-05-06 09:52 | 48.92076 | 15.07601 | 35038 ft | 328 kts | 298° |
| 2026-05-06 09:53 | 48.93535 | 15.04765 | 34497 ft | 354 kts | 299° |
| 2026-05-06 09:53 | 48.95101 | 15.01705 | 33886 ft | 379 kts | 299° |
| 2026-05-06 09:53 | 48.96688 | 14.98366 | 33197 ft | 401 kts | 296° |
| 2026-05-06 09:53 | 48.98220 | 14.94678 | 32486 ft | 423 kts | 294° |
| 2026-05-06 09:54 | 48.99764 | 14.90706 | 31767 ft | 447 kts | 294° |
| 2026-05-06 09:54 | 49.01371 | 14.86497 | 31073 ft | 470 kts | 294° |
| 2026-05-06 09:54 | 49.03043 | 14.82152 | 30401 ft | 478 kts | 294° |
| 2026-05-06 09:54 | 49.04752 | 14.77781 | 29742 ft | 481 kts | 295° |
| 2026-05-06 09:55 | 49.06482 | 14.73402 | 29322 ft | 481 kts | 295° |
| 2026-05-06 09:55 | 49.08215 | 14.69024 | 29294 ft | 481 kts | 295° |
| 2026-05-06 09:55 | 49.09944 | 14.64674 | 29617 ft | 477 kts | 295° |
| 2026-05-06 09:55 | 49.11646 | 14.60397 | 30398 ft | 466 kts | 294° |
| 2026-05-06 09:56 | 49.13289 | 14.56264 | 31166 ft | 455 kts | 294° |
| 2026-05-06 09:56 | 49.14919 | 14.52146 | 31734 ft | 449 kts | 294° |
| 2026-05-06 09:56 | 49.16529 | 14.48049 | 32010 ft | 450 kts | 294° |
| 2026-05-06 09:56 | 49.18138 | 14.43933 | 32281 ft | 451 kts | 294° |
| 2026-05-06 09:57 | 49.19745 | 14.39815 | 32556 ft | 451 kts | 294° |
| 2026-05-06 09:57 | 49.21354 | 14.35689 | 32821 ft | 452 kts | 294° |
| 2026-05-06 09:57 | 49.22963 | 14.31562 | 33133 ft | 452 kts | 294° |
| 2026-05-06 09:57 | 49.24573 | 14.27427 | 33413 ft | 452 kts | 294° |
| 2026-05-06 09:58 | 49.26186 | 14.23284 | 33702 ft | 452 kts | 294° |
| 2026-05-06 09:58 | 49.27793 | 14.19150 | 33948 ft | 452 kts | 294° |
| 2026-05-06 09:58 | 49.29403 | 14.15002 | 34172 ft | 452 kts | 294° |
| 2026-05-06 09:58 | 49.30989 | 14.10910 | 34414 ft | 452 kts | 294° |
| 2026-05-06 09:59 | 49.32590 | 14.06771 | 34654 ft | 451 kts | 294° |
| 2026-05-06 09:59 | 49.34210 | 14.02578 | 34914 ft | 451 kts | 294° |
| 2026-05-06 09:59 | 49.35806 | 13.98439 | 35158 ft | 450 kts | 294° |
| 2026-05-06 09:59 | 49.37374 | 13.94366 | 35401 ft | 449 kts | 294° |
| 2026-05-06 10:00 | 49.38963 | 13.90233 | 35679 ft | 449 kts | 294° |
| 2026-05-06 10:00 | 49.40550 | 13.86100 | 35923 ft | 447 kts | 294° |
| 2026-05-06 10:00 | 49.42248 | 13.82074 | 36186 ft | 451 kts | 300° |
| 2026-05-06 10:00 | 49.44162 | 13.78240 | 36446 ft | 451 kts | 302° |
| 2026-05-06 10:01 | 49.46116 | 13.74464 | 36709 ft | 451 kts | 303° |
| 2026-05-06 10:01 | 49.48097 | 13.70714 | 36981 ft | 450 kts | 303° |
| 2026-05-06 10:01 | 49.50079 | 13.66997 | 37244 ft | 449 kts | 303° |
| 2026-05-06 10:01 | 49.52063 | 13.63287 | 37509 ft | 447 kts | 303° |
| 2026-05-06 10:02 | 49.54005 | 13.59647 | 37772 ft | 446 kts | 303° |
| 2026-05-06 10:02 | 49.56000 | 13.55892 | 37835 ft | 449 kts | 304° |
| 2026-05-06 10:02 | 49.59959 | 13.48396 | 37822 ft | 458 kts | 304° |
| 2026-05-06 10:03 | 49.64010 | 13.40700 | 37827 ft | 465 kts | 304° |
| 2026-05-06 10:03 | 49.68130 | 13.32849 | 37827 ft | 473 kts | 304° |
| 2026-05-06 10:04 | 49.72288 | 13.24912 | 37830 ft | 474 kts | 304° |
| 2026-05-06 10:04 | 49.76422 | 13.16999 | 37827 ft | 477 kts | 304° |
| 2026-05-06 10:05 | 49.80593 | 13.08989 | 37805 ft | 477 kts | 304° |
| 2026-05-06 10:05 | 49.83996 | 13.02443 | 37810 ft | 458 kts | 304° |
| 2026-05-06 10:06 | 49.85965 | 12.98655 | 37808 ft | 445 kts | 304° |
| 2026-05-06 10:06 | 49.87882 | 12.94955 | 37801 ft | 438 kts | 304° |
| 2026-05-06 10:06 | 49.91691 | 12.87560 | 37798 ft | 438 kts | 304° |
| 2026-05-06 10:07 | 49.95479 | 12.80183 | 37820 ft | 439 kts | 303° |
| 2026-05-06 10:07 | 49.99301 | 12.72727 | 37813 ft | 442 kts | 303° |
| 2026-05-06 10:08 | 50.03134 | 12.65233 | 37807 ft | 442 kts | 303° |
| 2026-05-06 10:08 | 50.06960 | 12.57733 | 37809 ft | 442 kts | 303° |
| 2026-05-06 10:09 | 50.10779 | 12.50226 | 37802 ft | 442 kts | 303° |
| 2026-05-06 10:09 | 50.14601 | 12.42694 | 37804 ft | 442 kts | 303° |
| 2026-05-06 10:10 | 50.18253 | 12.35068 | 37789 ft | 439 kts | 296° |
| 2026-05-06 10:10 | 50.20789 | 12.26522 | 37771 ft | 433 kts | 287° |
| 2026-05-06 10:11 | 50.22902 | 12.17716 | 37794 ft | 432 kts | 285° |
| 2026-05-06 10:11 | 50.24924 | 12.08871 | 37817 ft | 432 kts | 285° |
| 2026-05-06 10:12 | 50.26930 | 12.00089 | 37833 ft | 432 kts | 285° |
| 2026-05-06 10:12 | 50.28962 | 11.91243 | 37831 ft | 433 kts | 285° |
| 2026-05-06 10:13 | 50.30998 | 11.82373 | 37831 ft | 433 kts | 285° |
| 2026-05-06 10:13 | 50.33027 | 11.73500 | 37826 ft | 433 kts | 285° |
| 2026-05-06 10:14 | 50.35050 | 11.64621 | 37816 ft | 433 kts | 285° |
| 2026-05-06 10:14 | 50.37063 | 11.55739 | 37811 ft | 434 kts | 285° |
| 2026-05-06 10:15 | 50.39080 | 11.46798 | 37797 ft | 436 kts | 285° |
| 2026-05-06 10:15 | 50.41099 | 11.37814 | 37784 ft | 436 kts | 285° |
| 2026-05-06 10:16 | 50.43098 | 11.28884 | 37776 ft | 436 kts | 285° |
| 2026-05-06 10:16 | 50.45100 | 11.19902 | 37774 ft | 436 kts | 285° |
| 2026-05-06 10:17 | 50.47097 | 11.10906 | 37778 ft | 437 kts | 285° |
| 2026-05-06 10:17 | 50.49088 | 11.01890 | 37777 ft | 437 kts | 285° |
| 2026-05-06 10:18 | 50.51070 | 10.92876 | 37777 ft | 437 kts | 285° |
| 2026-05-06 10:18 | 50.53049 | 10.83842 | 37778 ft | 437 kts | 285° |
| 2026-05-06 10:19 | 50.55009 | 10.74854 | 37772 ft | 437 kts | 285° |
| 2026-05-06 10:19 | 50.56974 | 10.65804 | 37770 ft | 437 kts | 285° |
| 2026-05-06 10:20 | 50.59161 | 10.56852 | 37765 ft | 440 kts | 291° |
| 2026-05-06 10:20 | 50.61834 | 10.48165 | 37766 ft | 441 kts | 292° |
| 2026-05-06 10:21 | 50.64595 | 10.39522 | 37761 ft | 441 kts | 293° |
| 2026-05-06 10:21 | 50.67362 | 10.30878 | 37774 ft | 441 kts | 293° |
| 2026-05-06 10:22 | 50.70118 | 10.22199 | 37756 ft | 443 kts | 292° |
| 2026-05-06 10:22 | 50.72867 | 10.13491 | 37748 ft | 443 kts | 292° |
| 2026-05-06 10:23 | 50.75595 | 10.04816 | 37751 ft | 443 kts | 292° |
| 2026-05-06 10:23 | 50.78335 | 9.96072 | 37749 ft | 443 kts | 292° |
| 2026-05-06 10:24 | 50.81065 | 9.87325 | 37767 ft | 443 kts | 292° |
| 2026-05-06 10:24 | 50.83798 | 9.78537 | 37746 ft | 445 kts | 292° |
| 2026-05-06 10:25 | 50.86526 | 9.69737 | 37746 ft | 446 kts | 292° |
| 2026-05-06 10:25 | 50.89235 | 9.60967 | 37746 ft | 446 kts | 292° |
| 2026-05-06 10:26 | 50.91952 | 9.52139 | 37744 ft | 446 kts | 292° |
| 2026-05-06 10:26 | 50.94664 | 9.43295 | 37755 ft | 446 kts | 292° |
| 2026-05-06 10:27 | 50.97377 | 9.34414 | 37748 ft | 447 kts | 292° |
| 2026-05-06 10:27 | 51.00082 | 9.25531 | 37744 ft | 447 kts | 292° |
| 2026-05-06 10:28 | 51.02765 | 9.16687 | 37746 ft | 447 kts | 292° |
| 2026-05-06 10:28 | 51.05455 | 9.07783 | 37747 ft | 447 kts | 292° |
| 2026-05-06 10:29 | 51.08140 | 8.98868 | 37746 ft | 447 kts | 292° |
| 2026-05-06 10:29 | 51.10816 | 8.89948 | 37747 ft | 446 kts | 292° |
| 2026-05-06 10:30 | 51.13718 | 8.81174 | 37747 ft | 450 kts | 301° |
| 2026-05-06 10:30 | 51.17468 | 8.73213 | 37758 ft | 452 kts | 304° |
| 2026-05-06 10:31 | 51.21197 | 8.65163 | 37758 ft | 449 kts | 296° |
| 2026-05-06 10:31 | 51.23439 | 8.56022 | 37766 ft | 440 kts | 278° |
| 2026-05-06 10:32 | 51.24018 | 8.46356 | 37765 ft | 438 kts | 270° |
| 2026-05-06 10:32 | 51.24314 | 8.36591 | 37452 ft | 445 kts | 270° |
| 2026-05-06 10:33 | 51.24461 | 8.31641 | 36897 ft | 448 kts | 270° |
| 2026-05-06 10:33 | 51.24610 | 8.26657 | 36158 ft | 451 kts | 270° |
| 2026-05-06 10:33 | 51.24758 | 8.21683 | 35468 ft | 454 kts | 270° |
| 2026-05-06 10:33 | 51.24907 | 8.16642 | 34829 ft | 455 kts | 270° |
| 2026-05-06 10:34 | 51.25054 | 8.11592 | 34201 ft | 456 kts | 270° |
| 2026-05-06 10:34 | 51.25200 | 8.06518 | 33525 ft | 458 kts | 270° |
| 2026-05-06 10:34 | 51.25344 | 8.01438 | 32793 ft | 459 kts | 270° |
| 2026-05-06 10:34 | 51.25486 | 7.96346 | 32069 ft | 459 kts | 271° |
| 2026-05-06 10:35 | 51.25627 | 7.91233 | 31366 ft | 460 kts | 271° |
| 2026-05-06 10:35 | 51.25765 | 7.86148 | 30688 ft | 460 kts | 271° |
| 2026-05-06 10:35 | 51.25901 | 7.81030 | 30016 ft | 460 kts | 272° |
| 2026-05-06 10:35 | 51.26034 | 7.75940 | 29273 ft | 460 kts | 272° |
| 2026-05-06 10:36 | 51.26167 | 7.70827 | 28501 ft | 460 kts | 272° |
| 2026-05-06 10:36 | 51.26296 | 7.65736 | 27751 ft | 459 kts | 272° |
| 2026-05-06 10:36 | 51.26423 | 7.60642 | 27038 ft | 458 kts | 272° |
| 2026-05-06 10:36 | 51.26545 | 7.55642 | 26329 ft | 457 kts | 271° |
| 2026-05-06 10:37 | 51.26667 | 7.50573 | 25639 ft | 455 kts | 272° |
| 2026-05-06 10:37 | 51.26786 | 7.45534 | 24966 ft | 453 kts | 271° |
| 2026-05-06 10:37 | 51.26902 | 7.40516 | 24310 ft | 451 kts | 271° |
| 2026-05-06 10:37 | 51.27016 | 7.35517 | 23668 ft | 449 kts | 271° |
| 2026-05-06 10:38 | 51.27126 | 7.30545 | 22965 ft | 447 kts | 271° |
| 2026-05-06 10:38 | 51.27235 | 7.25594 | 22229 ft | 443 kts | 271° |
| 2026-05-06 10:38 | 51.27340 | 7.20751 | 21489 ft | 425 kts | 271° |
| 2026-05-06 10:38 | 51.27437 | 7.16201 | 20840 ft | 405 kts | 271° |
| 2026-05-06 10:39 | 51.27529 | 7.11810 | 20266 ft | 387 kts | 270° |
| 2026-05-06 10:39 | 51.27614 | 7.07578 | 19737 ft | 378 kts | 270° |
| 2026-05-06 10:39 | 51.27697 | 7.03405 | 19201 ft | 374 kts | 270° |
| 2026-05-06 10:39 | 51.27777 | 6.99267 | 18672 ft | 372 kts | 270° |
| 2026-05-06 10:40 | 51.27855 | 6.95155 | 18148 ft | 368 kts | 270° |
| 2026-05-06 10:40 | 51.27932 | 6.91086 | 17559 ft | 364 kts | 270° |
| 2026-05-06 10:40 | 51.28006 | 6.87063 | 16985 ft | 361 kts | 270° |
| 2026-05-06 10:40 | 51.28079 | 6.83074 | 16407 ft | 358 kts | 270° |
| 2026-05-06 10:41 | 51.28149 | 6.79125 | 15846 ft | 354 kts | 270° |
| 2026-05-06 10:41 | 51.28217 | 6.75212 | 15288 ft | 351 kts | 270° |
| 2026-05-06 10:41 | 51.28284 | 6.71366 | 14750 ft | 348 kts | 270° |
| 2026-05-06 10:41 | 51.28348 | 6.67520 | 14222 ft | 346 kts | 270° |
| 2026-05-06 10:42 | 51.28411 | 6.63664 | 13703 ft | 349 kts | 270° |
| 2026-05-06 10:42 | 51.28475 | 6.59787 | 13133 ft | 347 kts | 270° |
| 2026-05-06 10:42 | 51.28536 | 6.55948 | 12603 ft | 343 kts | 271° |
| 2026-05-06 10:42 | 51.28595 | 6.52154 | 12087 ft | 340 kts | 271° |
| 2026-05-06 10:43 | 51.28651 | 6.48404 | 11573 ft | 337 kts | 271° |
| 2026-05-06 10:43 | 51.28707 | 6.44674 | 11137 ft | 334 kts | 271° |
| 2026-05-06 10:43 | 51.28761 | 6.40984 | 10816 ft | 332 kts | 271° |
| 2026-05-06 10:44 | 51.28864 | 6.33666 | 10118 ft | 323 kts | 271° |
| 2026-05-06 10:44 | 51.28912 | 6.30161 | 9804 ft | 307 kts | 271° |
| 2026-05-06 10:44 | 51.28956 | 6.26828 | 9482 ft | 293 kts | 271° |
| 2026-05-06 10:44 | 51.28998 | 6.23631 | 9146 ft | 284 kts | 271° |
| 2026-05-06 10:45 | 51.29037 | 6.20488 | 8819 ft | 281 kts | 273° |
| 2026-05-06 10:45 | 51.29075 | 6.17391 | 8561 ft | 284 kts | 275° |
| 2026-05-06 10:45 | 51.29115 | 6.14181 | 8282 ft | 286 kts | 274° |
| 2026-05-06 10:45 | 51.29153 | 6.11061 | 8043 ft | 284 kts | 274° |
| 2026-05-06 10:46 | 51.29190 | 6.07914 | 7798 ft | 283 kts | 274° |
| 2026-05-06 10:46 | 51.29226 | 6.04776 | 7552 ft | 281 kts | 274° |
| 2026-05-06 10:46 | 51.29260 | 6.01662 | 7293 ft | 281 kts | 274° |
| 2026-05-06 10:46 | 51.29295 | 5.98549 | 7044 ft | 280 kts | 274° |
| 2026-05-06 10:47 | 51.29329 | 5.95439 | 6791 ft | 279 kts | 274° |
| 2026-05-06 10:47 | 51.29360 | 5.92344 | 6571 ft | 279 kts | 274° |
| 2026-05-06 10:47 | 51.29390 | 5.89243 | 6328 ft | 279 kts | 274° |
| 2026-05-06 10:47 | 51.29424 | 5.86147 | 6066 ft | 277 kts | 274° |
| 2026-05-06 10:48 | 51.29455 | 5.83075 | 5819 ft | 277 kts | 274° |
| 2026-05-06 10:48 | 51.29490 | 5.79983 | 5567 ft | 281 kts | 275° |
| 2026-05-06 10:48 | 51.29534 | 5.76811 | 5315 ft | 288 kts | 274° |
| 2026-05-06 10:48 | 51.29557 | 5.73596 | 5029 ft | 290 kts | 273° |
| 2026-05-06 10:49 | 51.29573 | 5.70405 | 4753 ft | 284 kts | 274° |
| 2026-05-06 10:49 | 51.29594 | 5.67284 | 4492 ft | 277 kts | 274° |
| 2026-05-06 10:49 | 51.29616 | 5.64280 | 4235 ft | 271 kts | 274° |
| 2026-05-06 10:49 | 51.29639 | 5.61283 | 3988 ft | 269 kts | 274° |
| 2026-05-06 10:50 | 51.29663 | 5.58283 | 3728 ft | 270 kts | 274° |
| 2026-05-06 10:50 | 51.29685 | 5.55285 | 3476 ft | 269 kts | 274° |
| 2026-05-06 10:50 | 51.29706 | 5.52306 | 3228 ft | 268 kts | 274° |
| 2026-05-06 10:50 | 51.29726 | 5.49322 | 2973 ft | 268 kts | 274° |
| 2026-05-06 10:51 | 51.29745 | 5.46355 | 2713 ft | 266 kts | 274° |
| 2026-05-06 10:51 | 51.29763 | 5.43410 | 2454 ft | 264 kts | 274° |
| 2026-05-06 10:51 | 51.29775 | 5.41475 | 2285 ft | 263 kts | 274° |
| 2026-05-06 10:51 | 51.29792 | 5.38568 | 2049 ft | 260 kts | 274° |
| 2026-05-06 10:52 | 51.29809 | 5.35677 | 1991 ft | 259 kts | 274° |
| 2026-05-06 10:52 | 51.29824 | 5.32814 | 1993 ft | 254 kts | 274° |
| 2026-05-06 10:52 | 51.29864 | 5.30081 | 2010 ft | 236 kts | 279° |
| 2026-05-06 10:52 | 51.30256 | 5.27690 | 2020 ft | 213 kts | 296° |
| 2026-05-06 10:53 | 51.30935 | 5.25707 | 1997 ft | 195 kts | 313° |
| 2026-05-06 10:53 | 51.32022 | 5.24807 | 1996 ft | 169 kts | 357° |
| 2026-05-06 10:53 | 51.33146 | 5.25011 | 2005 ft | 157 kts | 15° |
| 2026-05-06 10:53 | 51.34112 | 5.25533 | 2006 ft | 136 kts | 22° |
| 2026-05-06 10:54 | 51.34907 | 5.26218 | 2021 ft | 127 kts | 30° |
| 2026-05-06 10:54 | 51.35644 | 5.26992 | 2003 ft | 127 kts | 31° |
| 2026-05-06 10:54 | 51.36368 | 5.27785 | 1985 ft | 128 kts | 33° |
| 2026-05-06 10:54 | 51.37104 | 5.28606 | 1844 ft | 129 kts | 32° |
| 2026-05-06 10:55 | 51.37840 | 5.29423 | 1661 ft | 128 kts | 33° |
| 2026-05-06 10:55 | 51.38563 | 5.30229 | 1475 ft | 126 kts | 33° |
| 2026-05-06 10:55 | 51.39286 | 5.31038 | 1304 ft | 127 kts | 33° |
| 2026-05-06 10:55 | 51.40012 | 5.31850 | 1117 ft | 127 kts | 32° |
| 2026-05-06 10:56 | 51.40737 | 5.32661 | 938 ft | 126 kts | 32° |
| 2026-05-06 10:56 | 51.41458 | 5.33468 | 748 ft | 126 kts | 34° |
| 2026-05-06 10:56 | 51.42179 | 5.34276 | 579 ft | 125 kts | 32° |
| 2026-05-06 10:56 | 51.42892 | 5.35076 | 408 ft | 126 kts | 32° |
| 2026-05-06 10:57 | 51.43604 | 5.35872 | 241 ft | 125 kts | 33° |
| 2026-05-06 10:57 | 51.44304 | 5.36655 | 96 ft | 119 kts | 32° |
| 2026-05-06 10:57 | 51.44866 | 5.37281 | 86 ft | 73 kts | 35° |
| 2026-05-06 10:57 | 51.45223 | 5.37682 | 85 ft | 53 kts | 36° |
| 2026-05-06 10:58 | 51.45476 | 5.37970 | 89 ft | 38 kts | 34° |
| 2026-05-06 10:58 | 51.45690 | 5.38210 | 86 ft | 37 kts | 35° |
| 2026-05-06 10:58 | 51.45857 | 5.38394 | 84 ft | 2 kts | 34° |
| 2026-05-06 10:58 | 51.45899 | 5.38444 | 85 ft | 12 kts | 39° |
| 2026-05-06 10:59 | 51.45892 | 5.38544 | 87 ft | 11 kts | 123° |
| 2026-05-06 10:59 | 51.45852 | 5.38639 | 85 ft | 12 kts | 123° |
| 2026-05-06 10:59 | 51.45799 | 5.38769 | 67 ft | 14 kts | 121° |
| 2026-05-06 10:59 | 51.45807 | 5.38841 | 74 ft | 5 kts | 44° |
| 2026-05-06 11:00 | 51.45819 | 5.38899 | 83 ft | 8 kts | 96° |
| 2026-05-06 11:00 | 51.45791 | 5.38964 | 84 ft | 4 kts | 125° |
| 2026-05-06 11:00 | 51.45790 | 5.38968 | 84 ft | 0 kts | 124° |